Clarkfield, Minnesota
Current Conditions -  °F | °C
As of 8:33 AM on Friday 28 Nov 2014 (Local Time) from KGDB Reporting Station
Broken Clouds Broken Clouds  
Wind Chill:   Ceiling: 12000
Heat Index: 12°   Visibility: 10mi
Dew Point:   Wind: 7mph
Humidity: 82%   Direction: 100°E
Pressure: 29.91"   Gusts: NA
Location:  44.79°N, 95.81°W
Report Text: KGDB 281433Z AUTO 10006KT 10SM BKN120 M11/M14 A2991 RMK AO2 T11101136
Loading
Personal Weather Stations






























Interactive Weather Map New forecast layout! Learn more

10-Day Weather Forecast

Advertisements
Track Severe Weather on mobile